Time;durP1;ratioP1;P1;durP2;ratioP2;P2;SDS_P1;SDS_P2;PMS_P1;PMS_P2;Temp;Humidity;BMP_temperature;BMP_pressure;BME280_temperature;BME280_humidity;BME280_pressure;Samples;Min_cycle;Max_cycle;Signal;HPM_P1;HPM_P2
2021/09/30 00:01:40;;;;;;;2.15;1.10;;;8.20;99.90;;;;;;5055262;28;20032;-79
2021/09/30 00:04:06;;;;;;;2.72;1.55;;;8.20;99.90;;;;;;5055178;28;20382;-79
2021/09/30 00:06:33;;;;;;;2.53;1.20;;;8.20;99.90;;;;;;5054577;28;20048;-76
2021/09/30 00:09:00;;;;;;;1.73;1.10;;;8.20;99.90;;;;;;5055535;28;20383;-79
2021/09/30 00:11:28;;;;;;;2.53;1.23;;;8.20;99.90;;;;;;5037956;28;20040;-79
2021/09/30 00:14:04;;;;;;;0.95;0.85;;;8.20;99.90;;;;;;5054882;28;20470;-80
2021/09/30 00:46:20;;;;;;;3.85;1.42;;;8.20;99.90;;;;;;5035554;28;20484;-78
2021/09/30 00:49:13;;;;;;;2.08;1.60;;;8.10;99.90;;;;;;5015688;28;20049;-80
2021/09/30 00:51:48;;;;;;;2.05;1.65;;;8.10;99.90;;;;;;5014676;28;20033;-78
2021/09/30 02:58:38;;;;;;;7.13;2.25;;;7.30;99.90;;;;;;5055785;28;20044;-76
2021/09/30 03:01:16;;;;;;;4.28;3.15;;;7.30;99.90;;;;;;5038138;28;20063;-81
2021/09/30 03:03:46;;;;;;;4.13;2.72;;;7.30;99.90;;;;;;5044940;28;20044;-79
2021/09/30 03:06:14;;;;;;;6.18;3.83;;;7.30;99.90;;;;;;5058727;28;20033;-80
2021/09/30 03:08:48;;;;;;;3.95;3.13;;;7.20;99.90;;;;;;5055734;28;20470;-81
2021/09/30 03:11:17;;;;;;;4.85;3.13;;;7.30;99.90;;;;;;5037866;28;20486;-80
2021/09/30 03:13:46;;;;;;;7.32;3.70;;;7.30;99.90;;;;;;5054753;28;20021;-81
2021/09/30 03:16:41;;;;;;;4.50;2.60;;;7.30;99.90;;;;;;5053308;28;20052;-81
2021/09/30 03:24:39;;;;;;;5.45;3.20;;;7.30;99.90;;;;;;5052515;28;20628;-76
2021/09/30 03:27:06;;;;;;;5.03;4.03;;;7.30;99.90;;;;;;5055156;28;20041;-81
2021/09/30 03:29:33;;;;;;;6.90;3.53;;;7.30;99.90;;;;;;5060246;28;20470;-81
2021/09/30 03:32:00;;;;;;;5.90;4.07;;;7.20;99.90;;;;;;5058493;28;20498;-80
2021/09/30 03:34:55;;;;;;;4.28;3.17;;;7.20;99.90;;;;;;5050695;28;20033;-81
2021/09/30 03:37:25;;;;;;;5.10;3.25;;;7.20;99.90;;;;;;5046604;28;20047;-80
2021/09/30 03:39:51;;;;;;;4.38;3.58;;;7.20;99.90;;;;;;5079888;28;20044;-81
2021/09/30 03:42:19;;;;;;;3.72;3.40;;;7.10;99.90;;;;;;5044365;28;20037;-80
2021/09/30 03:44:53;;;;;;;4.07;3.05;;;7.20;99.90;;;;;;5041568;28;20056;-81
2021/09/30 03:47:20;;;;;;;5.35;3.22;;;7.20;99.90;;;;;;5055840;28;20044;-81
2021/09/30 03:49:53;;;;;;;7.05;4.82;;;7.10;99.90;;;;;;5056293;28;20061;-79
2021/09/30 03:52:56;;;;;;;4.35;3.92;;;7.20;99.90;;;;;;5055944;28;20139;-80
2021/09/30 03:55:35;;;;;;;6.75;3.78;;;7.20;99.90;;;;;;5056116;28;20044;-80
2021/09/30 04:00:53;;;;;;;3.40;3.08;;;7.10;99.90;;;;;;5037989;28;20041;-81
2021/09/30 04:03:20;;;;;;;3.97;3.13;;;7.00;99.90;;;;;;5056040;28;20048;-81
2021/09/30 04:05:51;;;;;;;10.88;3.55;;;6.90;99.90;;;;;;5048238;28;20033;-78
2021/09/30 04:08:17;;;;;;;4.60;3.58;;;6.90;99.90;;;;;;5038715;28;20375;-80
2021/09/30 04:10:43;;;;;;;4.60;3.92;;;6.90;99.90;;;;;;5052793;28;20037;-79
2021/09/30 04:13:10;;;;;;;5.80;4.45;;;6.90;99.90;;;;;;5036444;28;20041;-80
2021/09/30 04:15:36;;;;;;;6.63;3.90;;;7.00;99.90;;;;;;5051978;28;20467;-78
2021/09/30 04:18:04;;;;;;;5.28;4.70;;;7.00;99.90;;;;;;5018272;28;20045;-81
2021/09/30 04:20:31;;;;;;;5.50;4.07;;;6.80;99.90;;;;;;5035117;28;20045;-81
2021/09/30 04:23:04;;;;;;;9.18;3.97;;;6.80;99.90;;;;;;5052447;28;20374;-80
2021/09/30 04:25:32;;;;;;;4.90;4.35;;;6.80;99.90;;;;;;5038220;28;20037;-81
2021/09/30 04:27:59;;;;;;;8.20;5.05;;;6.80;99.90;;;;;;5068075;28;20123;-81
2021/09/30 04:30:25;;;;;;;9.30;5.63;;;6.80;99.90;;;;;;5053604;28;20463;-80
2021/09/30 04:33:18;;;;;;;4.95;3.72;;;6.80;99.90;;;;;;5052927;28;20386;-80
2021/09/30 04:35:46;;;;;;;6.50;4.75;;;6.70;99.90;;;;;;5036350;28;20041;-80
2021/09/30 04:38:14;;;;;;;5.55;4.40;;;6.60;99.90;;;;;;5036490;28;20037;-80
2021/09/30 04:40:40;;;;;;;7.05;4.78;;;6.70;99.90;;;;;;5043469;28;20402;-79
2021/09/30 04:43:06;;;;;;;5.00;4.60;;;6.70;99.90;;;;;;5051809;28;20041;-80
2021/09/30 04:45:33;;;;;;;8.15;4.97;;;6.70;99.90;;;;;;5035021;28;20411;-80
2021/09/30 04:48:13;;;;;;;5.90;4.88;;;6.70;99.90;;;;;;5014569;28;20042;-81
2021/09/30 04:50:43;;;;;;;5.82;5.32;;;6.70;99.90;;;;;;5040975;28;20057;-80
2021/09/30 04:53:11;;;;;;;7.22;5.68;;;6.70;99.90;;;;;;5033638;28;20038;-79
2021/09/30 04:55:40;;;;;;;8.07;5.53;;;6.60;99.90;;;;;;5030993;28;20041;-79
2021/09/30 04:58:06;;;;;;;6.22;5.65;;;6.70;99.90;;;;;;5028786;28;20029;-80
2021/09/30 05:00:36;;;;;;;8.73;6.93;;;6.70;99.90;;;;;;5025475;28;20046;-80
2021/09/30 05:03:09;;;;;;;8.02;6.63;;;6.70;99.90;;;;;;5029075;28;20038;-80
2021/09/30 05:05:37;;;;;;;7.85;5.88;;;6.60;99.90;;;;;;5023354;28;20034;-75
2021/09/30 05:08:03;;;;;;;6.05;5.45;;;6.50;99.90;;;;;;5022311;28;20049;-79
2021/09/30 05:10:34;;;;;;;8.45;6.35;;;6.50;99.90;;;;;;5034504;28;20410;-79
2021/09/30 05:13:10;;;;;;;6.60;6.00;;;6.50;99.90;;;;;;5030368;28;20042;-81
2021/09/30 05:15:37;;;;;;;7.15;5.95;;;6.50;99.90;;;;;;5030584;28;20058;-77
2021/09/30 05:18:12;;;;;;;6.13;5.60;;;6.50;99.90;;;;;;5029057;28;20046;-80
2021/09/30 05:20:41;;;;;;;8.10;5.70;;;6.50;99.90;;;;;;5012236;28;20538;-79
2021/09/30 05:23:07;;;;;;;7.25;6.55;;;6.50;99.90;;;;;;5013787;28;20395;-80
2021/09/30 05:25:34;;;;;;;8.35;5.88;;;6.50;99.90;;;;;;5029095;28;20042;-81
2021/09/30 05:28:02;;;;;;;7.97;5.13;;;6.50;99.90;;;;;;5013274;28;20163;-80
2021/09/30 05:30:29;;;;;;;10.68;5.75;;;6.50;99.90;;;;;;5028152;28;20058;-81
2021/09/30 05:32:56;;;;;;;13.95;6.95;;;6.50;99.90;;;;;;5028632;28;20038;-80
2021/09/30 05:35:22;;;;;;;6.85;6.25;;;6.50;99.90;;;;;;5012795;28;20472;-80
2021/09/30 05:37:51;;;;;;;7.93;7.10;;;6.60;99.90;;;;;;5028282;28;20056;-80
2021/09/30 05:40:19;;;;;;;7.97;7.28;;;6.60;99.90;;;;;;5028005;28;20395;-81
2021/09/30 05:42:49;;;;;;;7.85;6.18;;;6.60;99.90;;;;;;5028486;28;20045;-81
2021/09/30 05:45:16;;;;;;;7.93;7.32;;;6.60;99.90;;;;;;5034680;28;20044;-82
2021/09/30 05:47:44;;;;;;;7.13;6.43;;;6.60;99.90;;;;;;5051195;28;20045;-80
2021/09/30 05:50:14;;;;;;;7.60;7.00;;;6.60;99.90;;;;;;5036473;28;20049;-81
2021/09/30 05:52:52;;;;;;;7.90;7.20;;;6.70;99.90;;;;;;5053589;28;20044;-80
2021/09/30 05:55:36;;;;;;;12.77;7.18;;;6.70;99.90;;;;;;5035604;28;20048;-80
2021/09/30 05:58:06;;;;;;;10.15;6.63;;;6.70;99.90;;;;;;5040009;28;20091;-80
2021/09/30 06:00:43;;;;;;;8.75;7.45;;;6.80;99.90;;;;;;5054878;28;20032;-80
2021/09/30 06:11:20;;;;;;;8.30;7.50;;;6.90;99.90;;;;;;5038291;28;20049;-82
2021/09/30 06:14:01;;;;;;;11.13;8.20;;;7.00;99.90;;;;;;5039207;28;20382;-81
2021/09/30 06:16:31;;;;;;;16.20;8.60;;;7.00;99.90;;;;;;5035359;28;20140;-82
2021/09/30 06:19:07;;;;;;;8.73;7.82;;;7.10;99.90;;;;;;5052785;28;20067;-80
2021/09/30 06:21:36;;;;;;;13.15;8.85;;;7.10;99.90;;;;;;5053326;28;20029;-81
2021/09/30 06:24:04;;;;;;;14.30;8.68;;;7.10;99.90;;;;;;5052853;28;20393;-80
2021/09/30 06:26:32;;;;;;;10.55;9.50;;;7.20;99.90;;;;;;5051037;28;20048;-80
2021/09/30 06:29:16;;;;;;;17.38;9.50;;;7.60;99.90;;;;;;5035668;28;20041;-80
2021/09/30 06:31:43;;;;;;;10.93;9.82;;;7.60;99.90;;;;;;5050153;28;20394;-80
2021/09/30 06:34:47;;;;;;;10.32;9.50;;;8.30;99.90;;;;;;5052012;28;20029;-81
2021/09/30 06:37:17;;;;;;;8.68;7.88;;;9.40;99.90;;;;;;5034212;28;20208;-81
2021/09/30 06:39:43;;;;;;;6.90;3.90;;;10.00;99.90;;;;;;5053273;28;20040;-81
2021/09/30 06:42:10;;;;;;;3.25;3.03;;;10.70;99.90;;;;;;5036468;28;20052;-79
2021/09/30 06:44:45;;;;;;;3.25;2.95;;;11.20;99.90;;;;;;5062096;28;20059;-81
2021/09/30 06:47:27;;;;;;;4.38;2.72;;;11.70;99.90;;;;;;5065378;28;20053;-81
2021/09/30 06:50:06;;;;;;;4.20;3.03;;;12.30;96.40;;;;;;5035186;28;20056;-80
2021/09/30 06:53:03;;;;;;;2.78;2.03;;;12.30;93.20;;;;;;5041833;28;20036;-81
2021/09/30 06:55:48;;;;;;;3.33;1.67;;;12.50;92.40;;;;;;5052517;28;20494;-81
2021/09/30 06:58:45;;;;;;;3.38;1.90;;;12.70;92.20;;;;;;5043101;28;20041;-78
2021/09/30 07:01:30;;;;;;;1.65;1.38;;;12.50;91.70;;;;;;5043803;28;20048;-77
2021/09/30 07:04:28;;;;;;;5.78;2.25;;;12.80;91.30;;;;;;5051553;28;20041;-77
2021/09/30 07:07:16;;;;;;;2.22;1.63;;;12.50;91.40;;;;;;5036510;28;20037;-81
2021/09/30 07:09:43;;;;;;;2.42;1.60;;;12.80;90.60;;;;;;5052319;28;20037;-80
2021/09/30 07:12:09;;;;;;;2.63;1.67;;;12.90;90.40;;;;;;5017646;28;20041;-78
2021/09/30 07:14:35;;;;;;;3.17;1.63;;;12.80;90.30;;;;;;5052416;28;20029;-80
2021/09/30 07:17:01;;;;;;;3.40;1.88;;;12.50;90.80;;;;;;5051660;28;20037;-79
2021/09/30 07:19:27;;;;;;;3.08;1.88;;;12.30;91.60;;;;;;5050451;28;20052;-79
2021/09/30 07:21:54;;;;;;;1.40;1.10;;;12.40;91.50;;;;;;5050581;28;20056;-78
2021/09/30 07:24:20;;;;;;;2.92;1.55;;;12.50;91.10;;;;;;5039873;28;20037;-78
2021/09/30 07:26:46;;;;;;;7.82;1.55;;;12.50;91.30;;;;;;5049038;28;20037;-80
2021/09/30 07:29:13;;;;;;;2.55;1.52;;;12.40;90.80;;;;;;5051770;28;20436;-78
2021/09/30 07:31:40;;;;;;;3.63;1.80;;;12.30;90.90;;;;;;5051848;28;20033;-77
2021/09/30 07:34:11;;;;;;;2.28;1.58;;;12.30;91.10;;;;;;5051782;28;20394;-79
2021/09/30 07:36:42;;;;;;;3.28;1.85;;;12.40;90.80;;;;;;5051754;28;20041;-79
2021/09/30 07:39:10;;;;;;;2.83;1.52;;;12.60;90.00;;;;;;5051669;28;20483;-78
2021/09/30 07:41:36;;;;;;;2.80;1.27;;;12.50;90.30;;;;;;5052004;28;20025;-77
2021/09/30 07:44:05;;;;;;;2.97;1.25;;;12.60;90.10;;;;;;5050862;28;20459;-78
2021/09/30 07:46:32;;;;;;;2.05;1.15;;;12.60;89.00;;;;;;5051873;28;20037;-80
2021/09/30 07:48:58;;;;;;;2.45;1.27;;;12.40;89.60;;;;;;5050688;28;20036;-79
2021/09/30 07:51:25;;;;;;;1.50;0.85;;;12.40;90.50;;;;;;5051517;28;20041;-81
2021/09/30 07:53:51;;;;;;;9.93;1.70;;;12.40;89.80;;;;;;5051111;28;20033;-78
2021/09/30 07:56:18;;;;;;;1.88;1.08;;;12.40;89.20;;;;;;5051457;28;20390;-79
2021/09/30 07:58:44;;;;;;;4.15;1.67;;;12.40;88.90;;;;;;5049313;28;20037;-80
2021/09/30 08:01:10;;;;;;;4.40;1.35;;;12.60;88.40;;;;;;5052202;28;20029;-80
2021/09/30 08:03:37;;;;;;;2.90;1.15;;;13.10;86.70;;;;;;5053115;28;20037;-81
2021/09/30 08:06:04;;;;;;;2.35;1.15;;;13.40;85.40;;;;;;5054614;28;20029;-83
2021/09/30 08:08:30;;;;;;;2.53;1.10;;;13.70;83.70;;;;;;5055403;28;20032;-78
2021/09/30 08:10:56;;;;;;;6.45;1.15;;;13.90;82.30;;;;;;5053916;28;20029;-77
2021/09/30 08:13:23;;;;;;;2.75;1.33;;;14.30;81.10;;;;;;5054262;28;20045;-79
2021/09/30 08:15:49;;;;;;;2.92;0.93;;;14.60;80.00;;;;;;5055594;28;20041;-79
2021/09/30 08:18:15;;;;;;;4.30;1.45;;;14.90;79.30;;;;;;5055279;28;20028;-79
2021/09/30 08:20:41;;;;;;;2.65;1.10;;;15.10;76.20;;;;;;5046555;28;20143;-78
2021/09/30 08:23:13;;;;;;;7.07;1.20;;;15.20;76.60;;;;;;5055661;28;20363;-79
2021/09/30 08:25:40;;;;;;;2.03;1.20;;;15.10;76.10;;;;;;5055450;28;20033;-80
2021/09/30 08:28:07;;;;;;;2.47;1.13;;;15.50;75.00;;;;;;5024183;28;20025;-80
2021/09/30 08:30:33;;;;;;;1.02;0.82;;;16.10;72.70;;;;;;5059268;28;20044;-79
2021/09/30 08:33:00;;;;;;;3.03;1.48;;;16.30;71.10;;;;;;5054784;28;20147;-79
2021/09/30 08:35:27;;;;;;;2.10;1.35;;;16.50;70.90;;;;;;5054934;28;20032;-80
2021/09/30 08:37:53;;;;;;;1.88;0.80;;;16.70;69.70;;;;;;5054514;28;20372;-78
2021/09/30 08:40:20;;;;;;;2.78;1.00;;;16.70;69.00;;;;;;5053143;28;20052;-80
2021/09/30 08:42:49;;;;;;;4.20;1.20;;;16.20;69.30;;;;;;5054385;28;20032;-79
2021/09/30 08:45:20;;;;;;;3.22;1.33;;;16.00;70.90;;;;;;5055205;28;20053;-81
2021/09/30 08:47:53;;;;;;;;;;;15.30;70.20;;;;;;5037011;28;20037;-81
2021/09/30 08:50:19;;;;;;;4.25;0.90;;;15.40;72.30;;;;;;5054263;28;19913;-80
2021/09/30 08:52:45;;;;;;;2.45;0.93;;;15.60;72.60;;;;;;5055451;28;20052;-80
2021/09/30 08:55:12;;;;;;;2.67;1.27;;;15.20;73.00;;;;;;5054871;28;20450;-80
2021/09/30 08:57:47;;;;;;;3.83;1.10;;;14.70;73.10;;;;;;5039638;28;20037;-79
2021/09/30 09:00:15;;;;;;;2.83;0.98;;;14.00;76.00;;;;;;5054310;28;20059;-79
2021/09/30 09:02:50;;;;;;;4.22;1.73;;;14.10;75.70;;;;;;5049652;28;20056;-77
2021/09/30 09:05:18;;;;;;;3.97;1.08;;;14.80;73.50;;;;;;5054431;28;20100;-79
2021/09/30 09:08:03;;;;;;;2.05;0.90;;;15.00;74.20;;;;;;5054271;28;20493;-79
2021/09/30 09:10:41;;;;;;;3.25;0.93;;;15.30;73.90;;;;;;5054075;28;20041;-79
2021/09/30 09:13:16;;;;;;;3.70;1.05;;;15.20;73.00;;;;;;5054123;28;20037;-79
2021/09/30 09:15:57;;;;;;;4.10;1.50;;;15.30;72.80;;;;;;5052934;28;20033;-79
2021/09/30 09:18:31;;;;;;;2.40;1.13;;;16.00;71.80;;;;;;5053948;28;20028;-79
2021/09/30 09:21:23;;;;;;;2.17;0.80;;;16.30;68.60;;;;;;5054129;28;20040;-79
2021/09/30 09:23:49;;;;;;;3.42;1.20;;;16.60;69.50;;;;;;5053499;28;20033;-80
2021/09/30 09:26:18;;;;;;;4.93;1.02;;;16.50;68.90;;;;;;5050601;28;20041;-80
2021/09/30 09:29:10;;;;;;;5.55;1.73;;;16.70;67.40;;;;;;5053712;28;20370;-79
2021/09/30 09:31:45;;;;;;;2.60;1.08;;;16.60;67.10;;;;;;5051816;28;20048;-79
2021/09/30 09:34:30;;;;;;;4.68;1.30;;;16.30;69.00;;;;;;5053457;28;20037;-79
2021/09/30 09:37:20;;;;;;;3.13;1.23;;;16.30;68.50;;;;;;5053613;28;20029;-81
2021/09/30 09:39:47;;;;;;;3.03;1.02;;;15.60;70.30;;;;;;5054110;28;20033;-80
2021/09/30 09:42:18;;;;;;;3.88;0.85;;;15.70;70.90;;;;;;5061609;28;20080;-79
2021/09/30 09:44:50;;;;;;;1.60;0.77;;;15.80;70.10;;;;;;5065171;28;20040;-78
2021/09/30 09:47:24;;;;;;;2.63;0.90;;;15.60;70.20;;;;;;5061650;28;20048;-79
2021/09/30 09:50:11;;;;;;;3.20;1.02;;;15.60;69.70;;;;;;5053011;28;20052;-78
2021/09/30 09:52:46;;;;;;;2.55;1.05;;;15.90;70.30;;;;;;5053548;28;20036;-79
2021/09/30 09:55:17;;;;;;;2.70;1.02;;;16.00;69.00;;;;;;5054259;28;20033;-77
2021/09/30 09:58:11;;;;;;;3.42;0.98;;;15.60;68.90;;;;;;5053176;28;20040;-77
2021/09/30 10:00:49;;;;;;;2.28;0.80;;;15.80;68.90;;;;;;5056878;28;20032;-79
2021/09/30 10:03:20;;;;;;;5.28;1.02;;;16.00;67.10;;;;;;5053446;28;20033;-78
2021/09/30 10:05:47;;;;;;;2.15;1.17;;;16.00;68.10;;;;;;5051649;28;20390;-79
2021/09/30 10:08:16;;;;;;;3.10;1.23;;;15.90;68.00;;;;;;5054793;28;20478;-80
2021/09/30 10:10:45;;;;;;;2.25;0.93;;;16.00;68.10;;;;;;5052963;28;20036;-79
2021/09/30 10:13:12;;;;;;;2.22;0.80;;;15.80;67.80;;;;;;5053153;28;20032;-78
2021/09/30 10:15:39;;;;;;;4.03;1.27;;;15.50;66.90;;;;;;5019191;28;20043;-78
2021/09/30 10:18:07;;;;;;;5.15;0.95;;;15.20;67.30;;;;;;5054459;28;20371;-78
2021/09/30 10:20:35;;;;;;;2.28;0.50;;;15.00;69.10;;;;;;5058047;28;20036;-79
2021/09/30 10:23:05;;;;;;;1.50;0.73;;;14.80;70.10;;;;;;5057155;28;20033;-79
2021/09/30 10:25:34;;;;;;;2.92;0.85;;;14.90;69.80;;;;;;5063197;28;20028;-79
2021/09/30 10:28:03;;;;;;;1.70;1.05;;;15.30;68.60;;;;;;5065407;28;20204;-80
2021/09/30 10:30:36;;;;;;;6.40;1.27;;;15.40;67.60;;;;;;5049671;28;20037;-80
2021/09/30 10:33:09;;;;;;;1.85;0.90;;;15.70;67.50;;;;;;5053633;28;20044;-80
2021/09/30 10:35:45;;;;;;;2.35;1.08;;;15.70;67.40;;;;;;5052540;28;20043;-78
2021/09/30 10:38:22;;;;;;;3.08;1.00;;;15.60;66.90;;;;;;5053413;28;20040;-80
2021/09/30 10:41:01;;;;;;;6.75;0.70;;;15.70;66.10;;;;;;5053052;28;20040;-80
2021/09/30 10:43:28;;;;;;;5.45;0.75;;;15.50;67.70;;;;;;5052769;28;20044;-79
2021/09/30 10:45:56;;;;;;;3.67;0.80;;;15.60;66.40;;;;;;5051894;28;20045;-79
2021/09/30 10:48:31;;;;;;;1.45;0.73;;;15.20;68.50;;;;;;5052597;28;20033;-79
2021/09/30 10:51:09;;;;;;;2.92;1.00;;;15.10;68.80;;;;;;5050384;28;20029;-78
2021/09/30 10:53:44;;;;;;;1.92;0.77;;;14.90;68.90;;;;;;5052898;28;20044;-79
2021/09/30 10:59:11;;;;;;;8.15;1.27;;;15.10;66.30;;;;;;5051997;28;20490;-79
2021/09/30 11:01:46;;;;;;;1.90;0.70;;;15.20;66.00;;;;;;5051852;28;20033;-78
2021/09/30 11:04:13;;;;;;;3.22;0.90;;;15.10;65.80;;;;;;5051701;28;20032;-77
2021/09/30 11:06:40;;;;;;;5.47;1.02;;;15.40;65.80;;;;;;5051805;28;20041;-78
2021/09/30 11:09:16;;;;;;;4.75;1.40;;;15.20;65.50;;;;;;5051548;28;20029;-77
2021/09/30 11:11:45;;;;;;;3.03;1.05;;;15.30;65.90;;;;;;5034444;28;20044;-77
2021/09/30 11:14:13;;;;;;;3.83;0.90;;;15.50;64.80;;;;;;5051427;28;20042;-79
2021/09/30 11:16:44;;;;;;;2.88;1.10;;;15.70;63.70;;;;;;5053015;28;20028;-82
2021/09/30 11:19:25;;;;;;;4.80;0.88;;;15.90;63.40;;;;;;5061260;28;20462;-80
2021/09/30 11:21:53;;;;;;;2.13;0.98;;;16.20;62.90;;;;;;5052344;28;20043;-79
2021/09/30 11:24:19;;;;;;;1.50;1.10;;;16.40;61.20;;;;;;5051814;28;20032;-80
2021/09/30 11:26:51;;;;;;;2.28;0.63;;;16.20;58.20;;;;;;5052279;28;20025;-79
2021/09/30 11:29:26;;;;;;;2.47;0.47;;;16.30;58.50;;;;;;5050385;28;20060;-79
2021/09/30 11:31:58;;;;;;;0.93;0.50;;;16.40;56.10;;;;;;5066164;28;20024;-80
2021/09/30 11:34:38;;;;;;;1.20;0.50;;;16.40;57.20;;;;;;5056006;28;20033;-80
2021/09/30 11:37:19;;;;;;;3.63;0.60;;;16.60;56.50;;;;;;5051400;28;20047;-78
2021/09/30 11:39:49;;;;;;;4.10;0.85;;;16.50;58.10;;;;;;5037638;28;20053;-79
2021/09/30 11:42:17;;;;;;;0.88;0.47;;;16.40;58.60;;;;;;5057043;28;20029;-80
2021/09/30 11:45:07;;;;;;;1.38;0.50;;;16.70;57.20;;;;;;5055893;28;20057;-78
2021/09/30 11:47:33;;;;;;;2.30;0.80;;;16.60;57.40;;;;;;5056370;28;20021;-80
2021/09/30 11:50:02;;;;;;;0.90;0.50;;;16.40;57.50;;;;;;5054918;28;20394;-80
2021/09/30 11:52:29;;;;;;;1.75;0.68;;;16.00;58.30;;;;;;5055762;28;20035;-80
2021/09/30 11:55:09;;;;;;;1.10;0.60;;;16.00;59.50;;;;;;5054994;28;20036;-79
2021/09/30 11:57:35;;;;;;;1.08;0.50;;;16.10;58.80;;;;;;5055888;28;20032;-80
2021/09/30 12:00:10;;;;;;;2.28;0.68;;;16.40;58.10;;;;;;5053967;28;20050;-80
2021/09/30 12:02:55;;;;;;;3.05;0.60;;;16.80;57.10;;;;;;5055708;28;20041;-79
2021/09/30 12:05:24;;;;;;;3.25;0.90;;;17.10;56.30;;;;;;5056079;28;20446;-78
2021/09/30 12:07:51;;;;;;;2.78;0.70;;;17.30;55.90;;;;;;5054730;28;20044;-79
2021/09/30 12:10:18;;;;;;;2.30;0.70;;;17.40;54.60;;;;;;5055530;28;20036;-79
2021/09/30 12:12:45;;;;;;;1.58;0.60;;;17.30;54.80;;;;;;5055332;28;20048;-78
2021/09/30 12:15:13;;;;;;;2.83;0.82;;;17.60;55.40;;;;;;5055840;28;20032;-79
2021/09/30 12:17:40;;;;;;;1.63;0.80;;;17.70;55.00;;;;;;5055941;28;20047;-78
2021/09/30 12:20:08;;;;;;;2.80;0.70;;;17.70;55.80;;;;;;5055279;28;20025;-77
2021/09/30 12:22:55;;;;;;;2.58;0.70;;;17.80;54.70;;;;;;5055115;28;20033;-78
2021/09/30 12:25:26;;;;;;;2.53;0.90;;;17.70;55.70;;;;;;5055240;28;20029;-77
2021/09/30 12:27:55;;;;;;;1.25;0.50;;;17.60;55.80;;;;;;5053943;28;20036;-79
2021/09/30 12:30:23;;;;;;;1.45;0.75;;;17.70;54.60;;;;;;5054759;28;20048;-78
2021/09/30 12:32:52;;;;;;;1.85;0.70;;;17.80;53.30;;;;;;5054090;28;20044;-77
2021/09/30 12:35:28;;;;;;;1.13;0.40;;;17.50;55.40;;;;;;5055526;28;20385;-77
2021/09/30 12:37:57;;;;;;;4.60;0.70;;;17.40;55.80;;;;;;5053742;28;20480;-78
2021/09/30 12:40:43;;;;;;;3.23;0.90;;;17.50;56.20;;;;;;5053002;28;20033;-78
2021/09/30 12:43:15;;;;;;;2.08;1.00;;;17.70;55.30;;;;;;5054951;28;20029;-79
2021/09/30 12:45:47;;;;;;;1.27;0.70;;;17.50;55.00;;;;;;5054891;28;20056;-78
2021/09/30 12:48:16;;;;;;;1.70;0.88;;;17.10;55.50;;;;;;5059748;28;20032;-80
2021/09/30 12:50:50;;;;;;;2.08;0.88;;;17.10;56.40;;;;;;5060709;28;20270;-79
2021/09/30 12:53:20;;;;;;;1.85;0.80;;;17.40;54.70;;;;;;5057667;28;20032;-78
2021/09/30 12:55:48;;;;;;;1.58;0.70;;;17.60;53.80;;;;;;5056460;28;20032;-78
2021/09/30 12:58:35;;;;;;;1.58;0.70;;;17.50;54.60;;;;;;5055401;28;20044;-79
2021/09/30 13:01:36;;;;;;;4.40;0.88;;;17.50;52.00;;;;;;5054778;28;20037;-77
2021/09/30 13:04:23;;;;;;;1.45;0.65;;;17.40;52.70;;;;;;5035840;28;20045;-79
2021/09/30 13:07:04;;;;;;;2.30;1.17;;;17.60;52.50;;;;;;5052689;28;20048;-78
2021/09/30 13:09:31;;;;;;;3.33;1.38;;;17.70;51.60;;;;;;5055058;28;20032;-78
2021/09/30 13:12:00;;;;;;;2.72;0.73;;;17.90;50.70;;;;;;5054822;28;20284;-78
2021/09/30 13:14:31;;;;;;;1.40;0.65;;;17.80;51.70;;;;;;5054819;28;20136;-78
2021/09/30 13:17:12;;;;;;;2.55;0.40;;;17.90;49.80;;;;;;5052213;28;20041;-78
2021/09/30 13:19:51;;;;;;;0.80;0.50;;;17.80;51.70;;;;;;5054451;28;20498;-79
2021/09/30 13:22:33;;;;;;;2.28;0.60;;;17.80;51.10;;;;;;5054704;28;20044;-79
2021/09/30 13:25:07;;;;;;;1.73;0.65;;;17.90;50.40;;;;;;5054355;28;20029;-78
2021/09/30 13:27:35;;;;;;;2.17;0.63;;;18.00;50.70;;;;;;5053831;28;20044;-79
2021/09/30 13:30:07;;;;;;;1.58;0.73;;;18.20;50.40;;;;;;5053828;28;20029;-79
2021/09/30 13:32:34;;;;;;;1.48;0.95;;;18.30;51.00;;;;;;5053837;28;21493;-79
2021/09/30 13:35:01;;;;;;;1.35;0.65;;;18.10;50.30;;;;;;5040995;28;20033;-79
2021/09/30 13:37:27;;;;;;;1.88;0.68;;;18.00;51.10;;;;;;5053845;28;20394;-79
2021/09/30 13:40:00;;;;;;;2.38;0.88;;;18.20;50.00;;;;;;5052981;28;20045;-79
2021/09/30 13:42:29;;;;;;;2.08;1.00;;;18.30;50.90;;;;;;5053610;28;20095;-76
2021/09/30 13:44:56;;;;;;;1.33;0.80;;;18.40;50.70;;;;;;5053709;28;20065;-77
2021/09/30 13:47:25;;;;;;;1.55;0.65;;;18.10;52.40;;;;;;5053719;28;20052;-77
2021/09/30 13:49:52;;;;;;;1.60;0.60;;;18.10;52.20;;;;;;5053510;28;20033;-77
2021/09/30 13:52:18;;;;;;;1.33;0.47;;;18.20;51.30;;;;;;5053606;28;20036;-78
2021/09/30 13:54:44;;;;;;;1.00;0.55;;;18.30;50.50;;;;;;5053156;28;20033;-77
2021/09/30 13:57:11;;;;;;;0.95;0.60;;;18.30;49.90;;;;;;5053520;28;20486;-79
2021/09/30 13:59:38;;;;;;;1.02;0.57;;;18.30;49.40;;;;;;5035959;28;20040;-77
2021/09/30 14:02:07;;;;;;;0.98;0.52;;;18.40;51.50;;;;;;5053049;28;20033;-78
2021/09/30 14:04:35;;;;;;;1.63;0.90;;;18.50;49.70;;;;;;5067842;28;20519;-79
2021/09/30 14:07:04;;;;;;;5.70;1.38;;;18.60;50.50;;;;;;5035196;28;20028;-78
2021/09/30 14:09:32;;;;;;;1.83;0.52;;;18.50;49.60;;;;;;5053396;28;20025;-79
2021/09/30 14:11:59;;;;;;;0.98;0.50;;;18.10;50.00;;;;;;5052779;28;20384;-79
2021/09/30 14:14:26;;;;;;;1.48;0.70;;;17.60;49.00;;;;;;5053031;28;20063;-78
2021/09/30 14:16:52;;;;;;;1.35;0.70;;;17.60;50.40;;;;;;5052873;28;20025;-77
2021/09/30 14:19:20;;;;;;;1.33;0.50;;;17.70;50.20;;;;;;5052810;28;20029;-77
2021/09/30 14:21:47;;;;;;;1.02;0.60;;;17.80;50.50;;;;;;5053444;28;20044;-79
2021/09/30 14:24:13;;;;;;;3.75;0.75;;;17.80;50.50;;;;;;5052024;28;20025;-78
2021/09/30 14:26:39;;;;;;;1.02;0.50;;;17.70;51.80;;;;;;5047274;28;20044;-79
2021/09/30 14:29:06;;;;;;;0.93;0.32;;;17.60;51.60;;;;;;5052168;28;20025;-77
2021/09/30 14:31:32;;;;;;;2.90;0.77;;;17.40;50.60;;;;;;5052821;28;20041;-77
2021/09/30 14:33:58;;;;;;;2.00;0.82;;;16.90;52.70;;;;;;5052749;28;20032;-78
2021/09/30 14:36:25;;;;;;;1.83;0.80;;;17.00;52.50;;;;;;5051969;28;20048;-78
2021/09/30 14:38:51;;;;;;;1.55;0.55;;;17.10;52.00;;;;;;5051949;28;20040;-78
2021/09/30 14:41:17;;;;;;;1.98;1.15;;;17.00;52.90;;;;;;5052817;28;20029;-78
2021/09/30 14:43:44;;;;;;;3.33;0.88;;;17.00;53.20;;;;;;5052386;28;20033;-78
2021/09/30 14:46:10;;;;;;;1.48;0.77;;;17.10;52.60;;;;;;5052014;28;20044;-79
2021/09/30 14:48:37;;;;;;;2.83;0.68;;;17.10;52.60;;;;;;5051112;28;20037;-79
2021/09/30 14:51:07;;;;;;;4.75;0.75;;;17.10;52.40;;;;;;5051972;28;20403;-79
2021/09/30 14:53:34;;;;;;;1.13;0.60;;;17.00;53.20;;;;;;5052682;28;20426;-79
2021/09/30 14:56:05;;;;;;;1.65;0.80;;;17.00;54.30;;;;;;5053389;28;20637;-79
2021/09/30 14:58:31;;;;;;;1.67;0.70;;;17.00;52.70;;;;;;5053659;28;20044;-79
2021/09/30 15:00:58;;;;;;;5.38;0.70;;;17.10;54.30;;;;;;5051937;28;20470;-79
2021/09/30 15:03:24;;;;;;;2.25;0.77;;;16.90;53.00;;;;;;5051921;28;20056;-79
2021/09/30 15:05:50;;;;;;;3.55;0.70;;;16.80;52.90;;;;;;5051732;28;20132;-77
2021/09/30 15:08:16;;;;;;;4.43;1.00;;;16.70;53.90;;;;;;5052531;28;20029;-79
2021/09/30 15:10:43;;;;;;;3.40;0.93;;;16.60;53.80;;;;;;5053092;28;20048;-79
2021/09/30 15:13:09;;;;;;;2.58;0.80;;;16.60;54.50;;;;;;5051339;28;20029;-79
2021/09/30 15:15:36;;;;;;;0.35;0.30;;;16.70;54.20;;;;;;5052153;28;20378;-80
2021/09/30 15:18:06;;;;;;;0.75;0.47;;;16.80;54.10;;;;;;5065186;28;20039;-80
2021/09/30 15:23:08;;;;;;;2.07;0.60;;;16.70;54.70;;;;;;5073528;28;20020;-78
2021/09/30 15:25:36;;;;;;;1.30;0.70;;;16.60;55.20;;;;;;5063793;28;20486;-79
2021/09/30 15:28:05;;;;;;;1.10;0.57;;;16.30;55.50;;;;;;5051960;28;20108;-79
2021/09/30 15:30:32;;;;;;;2.13;0.60;;;16.30;55.40;;;;;;5051729;28;20052;-80
2021/09/30 15:32:59;;;;;;;1.27;0.50;;;16.30;56.10;;;;;;5051196;28;20501;-77
2021/09/30 15:35:25;;;;;;;2.42;0.70;;;16.20;55.20;;;;;;5051836;28;20037;-77
2021/09/30 15:37:51;;;;;;;5.15;0.88;;;16.20;55.60;;;;;;5051569;28;20481;-79
2021/09/30 15:40:18;;;;;;;1.85;1.30;;;16.20;55.90;;;;;;5052221;28;20025;-81
2021/09/30 15:42:47;;;;;;;1.98;1.02;;;16.20;56.10;;;;;;5052394;28;20402;-80
2021/09/30 15:45:15;;;;;;;3.15;1.20;;;16.00;55.40;;;;;;5050939;28;20068;-78
2021/09/30 15:47:42;;;;;;;1.15;0.60;;;15.90;55.90;;;;;;5053232;28;20041;-80
2021/09/30 15:50:09;;;;;;;1.23;0.57;;;15.80;56.30;;;;;;5063555;28;20029;-81
2021/09/30 15:52:35;;;;;;;2.38;0.73;;;15.80;56.30;;;;;;5081076;28;20142;-80
2021/09/30 15:55:02;;;;;;;1.85;0.90;;;15.70;56.80;;;;;;5060943;28;20037;-82
2021/09/30 15:57:28;;;;;;;1.77;0.90;;;15.80;57.10;;;;;;5057842;28;20048;-81
2021/09/30 15:59:55;;;;;;;1.27;0.60;;;15.80;56.80;;;;;;5057198;28;20335;-80
2021/09/30 16:02:21;;;;;;;1.50;0.82;;;15.80;57.00;;;;;;5058176;28;20073;-78
2021/09/30 16:04:47;;;;;;;1.27;0.70;;;15.80;56.90;;;;;;5057442;28;20427;-80
2021/09/30 16:07:13;;;;;;;2.70;0.88;;;15.70;56.70;;;;;;5057435;28;20085;-79